createdAt,value
2022-08-24T00:00:44.460Z,78.32
2022-08-24T00:03:13.440Z,77.88
2022-08-24T00:05:42.849Z,78.08
2022-08-24T00:08:10.823Z,77.82
2022-08-24T00:10:39.629Z,78.01
2022-08-24T00:13:07.787Z,78.36
2022-08-24T00:15:36.064Z,78.51
2022-08-24T00:18:04.438Z,79.11
2022-08-24T00:20:32.976Z,80.38
2022-08-24T00:23:02.158Z,79.58
2022-08-24T00:25:30.137Z,79.56
2022-08-24T00:27:58.101Z,79.97
2022-08-24T00:30:26.079Z,80.17
2022-08-24T00:32:54.812Z,80.33
2022-08-24T00:35:24.205Z,79.79
2022-08-24T00:37:53.488Z,79.97
2022-08-24T00:40:26.056Z,80.15
2022-08-24T00:42:55.386Z,80.38
2022-08-24T00:45:25.066Z,81.00
2022-08-24T00:47:59.051Z,81.01
2022-08-24T00:50:34.160Z,80.53
2022-08-24T00:53:05.505Z,79.81
2022-08-24T00:55:40.212Z,80.01
2022-08-24T00:58:17.843Z,80.14
2022-08-24T01:01:03.615Z,81.34
2022-08-24T01:03:32.786Z,80.96
2022-08-24T01:06:01.028Z,80.96
2022-08-24T01:08:29.425Z,82.26
2022-08-24T01:11:01.992Z,83.74
2022-08-24T01:13:31.943Z,83.49
2022-08-24T01:16:03.112Z,82.17
2022-08-24T01:18:49.384Z,81.60
2022-08-24T01:21:20.853Z,81.24
2022-08-24T01:23:52.459Z,82.16
2022-08-24T01:26:23.510Z,83.22
2022-08-24T01:28:56.237Z,84.11
2022-08-24T01:31:26.045Z,84.45
2022-08-24T01:33:54.927Z,84.53
2022-08-24T01:36:37.236Z,84.58
2022-08-24T01:39:10.921Z,84.75
2022-08-24T01:41:38.810Z,85.21
2022-08-24T01:44:07.165Z,84.71
2022-08-24T01:46:35.519Z,84.65
2022-08-24T01:49:03.435Z,84.79
2022-08-24T01:51:32.600Z,85.41
2022-08-24T01:54:03.059Z,85.78
2022-08-24T01:56:34.068Z,84.35
2022-08-24T01:59:02.086Z,80.97
2022-08-24T02:01:33.436Z,81.65
2022-08-24T02:04:04.963Z,82.02
2022-08-24T02:06:33.450Z,80.87
2022-08-24T02:09:02.436Z,82.74
2022-08-24T02:11:34.894Z,85.13
2022-08-24T02:14:03.341Z,86.16
2022-08-24T02:16:34.135Z,85.53
2022-08-24T02:19:02.018Z,86.74
2022-08-24T02:21:30.187Z,87.53
2022-08-24T02:23:58.023Z,87.86
2022-08-24T02:26:28.423Z,88.27
2022-08-24T02:29:03.850Z,88.89
2022-08-24T02:31:33.883Z,88.43
2022-08-24T02:34:02.154Z,88.69
2022-08-24T02:36:31.243Z,88.71
2022-08-24T02:39:00.311Z,89.86
2022-08-24T02:41:28.773Z,90.39
2022-08-24T02:43:57.916Z,90.23
2022-08-24T02:46:29.946Z,90.09
2022-08-24T02:49:11.244Z,89.78
2022-08-24T02:51:45.773Z,88.84
2022-08-24T02:54:22.742Z,88.13
2022-08-24T02:56:53.296Z,88.83
2022-08-24T02:59:21.887Z,89.70
2022-08-24T03:01:52.796Z,89.48
2022-08-24T03:04:22.742Z,89.54
2022-08-24T03:06:50.673Z,90.55
2022-08-24T03:09:18.878Z,91.22
2022-08-24T03:11:46.802Z,92.32
2022-08-24T03:14:15.196Z,92.02
2022-08-24T03:16:43.943Z,90.61
2022-08-24T03:19:15.354Z,91.53
2022-08-24T03:21:44.646Z,92.21
2022-08-24T03:24:13.759Z,92.20
2022-08-24T03:26:44.295Z,91.89
2022-08-24T03:29:13.886Z,91.87
2022-08-24T03:31:44.186Z,91.74
2022-08-24T03:34:14.160Z,89.79
2022-08-24T03:36:46.191Z,89.17
2022-08-24T03:39:15.578Z,90.26
2022-08-24T03:41:43.731Z,90.41
2022-08-24T03:44:11.663Z,90.94
2022-08-24T03:46:41.729Z,90.55
2022-08-24T03:49:11.042Z,89.55
2022-08-24T03:51:40.480Z,90.56
2022-08-24T03:54:11.554Z,90.98
2022-08-24T03:56:39.879Z,91.45
2022-08-24T03:59:09.877Z,91.76
2022-08-24T04:01:41.662Z,92.23
2022-08-24T04:04:10.438Z,92.48
2022-08-24T04:06:44.558Z,91.10
2022-08-24T04:09:13.152Z,90.70
2022-08-24T04:11:46.241Z,91.99
2022-08-24T04:14:26.513Z,91.06
2022-08-24T04:17:15.609Z,92.00
2022-08-24T04:19:58.092Z,91.00
2022-08-24T04:22:34.291Z,90.41
2022-08-24T04:25:09.301Z,90.68
2022-08-24T04:27:39.239Z,91.85
2022-08-24T04:30:10.085Z,93.14
2022-08-24T04:33:03.471Z,94.79
2022-08-24T04:35:31.669Z,94.52
2022-08-24T04:38:01.100Z,96.13
2022-08-24T04:40:29.521Z,95.84
2022-08-24T04:42:59.199Z,95.24
2022-08-24T04:45:30.113Z,94.45
2022-08-24T04:47:58.198Z,94.40
2022-08-24T04:50:27.872Z,93.35
2022-08-24T04:52:55.998Z,92.80
2022-08-24T04:55:25.567Z,93.64
2022-08-24T04:57:53.588Z,92.66
2022-08-24T05:00:22.118Z,93.25
2022-08-24T05:02:50.701Z,93.39
2022-08-24T05:05:18.809Z,94.62
2022-08-24T05:07:46.862Z,97.61
2022-08-24T05:10:15.436Z,97.26
2022-08-24T05:12:47.144Z,96.26
2022-08-24T05:15:16.392Z,96.51
2022-08-24T05:17:46.778Z,94.55
2022-08-24T05:20:20.263Z,94.77
2022-08-24T05:22:50.101Z,94.88
2022-08-24T05:25:20.390Z,94.81
2022-08-24T05:27:49.914Z,93.99
2022-08-24T05:30:18.108Z,93.22
2022-08-24T05:32:46.588Z,93.05
2022-08-24T05:35:14.858Z,92.76
2022-08-24T05:37:44.015Z,92.72
2022-08-24T05:40:18.994Z,92.73
2022-08-24T05:42:55.633Z,92.76
2022-08-24T05:45:23.949Z,91.89
2022-08-24T05:47:52.446Z,91.18
2022-08-24T05:50:43.382Z,90.98
2022-08-24T05:53:13.498Z,92.09
2022-08-24T05:55:42.098Z,94.22
2022-08-24T05:58:13.049Z,94.36
2022-08-24T06:00:45.804Z,94.17
2022-08-24T06:03:15.073Z,93.18
2022-08-24T06:05:48.781Z,92.23
2022-08-24T06:08:16.749Z,91.15
2022-08-24T06:10:48.961Z,91.82
2022-08-24T06:13:18.413Z,91.48
2022-08-24T06:16:04.809Z,92.01
2022-08-24T06:18:36.030Z,93.36
2022-08-24T06:21:09.178Z,93.15
2022-08-24T06:23:38.030Z,92.99
2022-08-24T06:26:25.244Z,92.88
2022-08-24T06:28:54.963Z,93.41
2022-08-24T06:31:24.452Z,92.39
2022-08-24T06:33:53.757Z,92.40
2022-08-24T06:36:22.688Z,90.94
2022-08-24T06:38:51.052Z,89.94
2022-08-24T06:41:20.681Z,88.89
2022-08-24T06:43:48.910Z,88.65
2022-08-24T06:46:22.133Z,87.48
2022-08-24T06:48:53.275Z,86.31
2022-08-24T06:51:22.622Z,86.21
2022-08-24T06:53:51.504Z,86.05
2022-08-24T06:56:19.936Z,85.50
2022-08-24T06:58:48.101Z,84.13
2022-08-24T07:01:21.959Z,83.48
2022-08-24T07:03:51.004Z,82.28
2022-08-24T07:06:37.869Z,82.11
2022-08-24T07:09:06.405Z,82.16
2022-08-24T07:11:35.292Z,80.95
2022-08-24T07:14:04.106Z,79.29
2022-08-24T07:16:34.093Z,79.12
2022-08-24T07:19:05.605Z,78.88
2022-08-24T07:21:34.366Z,77.83
2022-08-24T07:26:35.309Z,76.59
2022-08-24T07:29:30.327Z,75.69
2022-08-24T07:32:01.712Z,74.32
2022-08-24T07:34:38.388Z,73.49
2022-08-24T07:37:08.247Z,72.83
2022-08-24T07:39:39.349Z,72.85
2022-08-24T07:42:21.797Z,71.54
2022-08-24T07:44:55.095Z,72.27
2022-08-24T07:47:38.111Z,71.37
2022-08-24T07:50:18.630Z,70.61
2022-08-24T07:52:46.863Z,69.49
2022-08-24T07:55:15.953Z,69.48
2022-08-24T07:57:45.694Z,69.74
2022-08-24T08:00:17.143Z,68.10
2022-08-24T08:02:50.996Z,67.04
2022-08-24T08:05:23.651Z,67.34
2022-08-24T08:07:54.437Z,66.33
2022-08-24T08:10:23.509Z,65.83
2022-08-24T08:12:53.138Z,65.21
2022-08-24T08:15:21.847Z,65.05
2022-08-24T08:18:00.116Z,63.47
2022-08-24T08:20:28.233Z,63.78
2022-08-24T08:23:14.838Z,63.54
2022-08-24T08:26:03.038Z,63.23
2022-08-24T08:28:49.905Z,61.59
2022-08-24T08:31:17.910Z,60.85
2022-08-24T08:33:47.623Z,61.23
2022-08-24T08:36:16.420Z,59.77
2022-08-24T08:38:51.473Z,59.98
2022-08-24T08:41:59.296Z,58.48
2022-08-24T08:44:43.510Z,58.69
2022-08-24T08:47:21.985Z,58.95
2022-08-24T08:50:14.635Z,57.71
2022-08-24T08:53:18.373Z,57.46
2022-08-24T08:55:54.257Z,56.90
2022-08-24T08:58:41.177Z,56.58
2022-08-24T09:01:32.659Z,58.87
2022-08-24T09:04:25.367Z,55.63
2022-08-24T09:07:18.863Z,55.10
2022-08-24T09:10:16.856Z,54.38
2022-08-24T09:13:01.853Z,53.94
2022-08-24T09:15:58.014Z,54.58
2022-08-24T09:18:48.331Z,54.04
2022-08-24T09:21:35.188Z,53.22
2022-08-24T09:24:20.394Z,53.26
2022-08-24T09:27:16.701Z,53.12
2022-08-24T09:30:00.832Z,52.95
2022-08-24T09:32:56.538Z,53.71
2022-08-24T09:35:34.051Z,53.42
2022-08-24T09:38:19.044Z,54.34
2022-08-24T09:41:27.903Z,53.59
2022-08-24T09:44:22.727Z,52.96
2022-08-24T09:47:13.859Z,51.08
2022-08-24T09:50:03.694Z,51.23
2022-08-24T09:53:00.473Z,49.68
2022-08-24T09:56:00.752Z,49.20
2022-08-24T09:58:42.135Z,48.64
2022-08-24T10:01:20.467Z,47.36
2022-08-24T10:04:02.938Z,47.10
2022-08-24T10:06:43.504Z,45.32
2022-08-24T10:09:47.359Z,45.16
2022-08-24T10:12:23.892Z,46.76
2022-08-24T10:15:04.577Z,45.56
2022-08-24T10:17:44.158Z,45.01
2022-08-24T10:20:23.415Z,44.44
2022-08-24T10:23:08.438Z,44.05
2022-08-24T10:25:40.706Z,45.00
2022-08-24T10:28:47.525Z,44.09
2022-08-24T10:31:21.811Z,44.94
2022-08-24T10:34:06.884Z,45.49
2022-08-24T10:37:03.556Z,45.87
2022-08-24T10:40:06.000Z,46.40
2022-08-24T10:43:18.541Z,44.72
2022-08-24T10:46:19.882Z,45.56
2022-08-24T10:49:15.502Z,44.87
2022-08-24T10:52:00.663Z,45.38
2022-08-24T10:54:29.029Z,45.03
2022-08-24T10:57:11.617Z,45.07
2022-08-24T10:59:50.957Z,45.01
2022-08-24T11:02:31.801Z,44.59
2022-08-24T11:05:03.357Z,43.25
2022-08-24T11:07:31.493Z,43.33
2022-08-24T11:10:02.079Z,45.34
2022-08-24T11:12:33.876Z,45.49
2022-08-24T11:15:05.112Z,45.36
2022-08-24T11:17:34.919Z,43.21
2022-08-24T11:20:25.653Z,42.69
2022-08-24T11:23:03.410Z,42.87
2022-08-24T11:25:34.344Z,42.33
2022-08-24T11:28:06.949Z,43.15
2022-08-24T11:30:39.856Z,43.53
2022-08-24T11:33:27.073Z,43.85
2022-08-24T11:35:56.741Z,43.49
2022-08-24T11:38:27.588Z,43.41
2022-08-24T11:41:03.946Z,41.17
2022-08-24T11:43:49.069Z,42.29
2022-08-24T11:46:29.203Z,42.59
2022-08-24T11:49:08.948Z,41.69
2022-08-24T11:51:47.506Z,42.22
2022-08-24T11:57:09.986Z,40.45
2022-08-24T11:59:46.695Z,41.04
2022-08-24T12:02:24.873Z,40.05
2022-08-24T12:04:59.002Z,40.93
2022-08-24T12:07:44.564Z,41.06
2022-08-24T12:10:32.122Z,39.76
2022-08-24T12:13:07.349Z,40.71
2022-08-24T12:15:43.806Z,41.43
2022-08-24T12:18:25.773Z,40.13
2022-08-24T12:20:55.347Z,38.75
2022-08-24T12:23:29.096Z,39.31
2022-08-24T12:26:03.143Z,37.85
2022-08-24T12:28:37.268Z,37.28
2022-08-24T12:31:12.535Z,37.66
2022-08-24T12:33:45.262Z,37.61
2022-08-24T12:36:22.549Z,37.37
2022-08-24T12:39:03.500Z,37.48
2022-08-24T12:41:34.723Z,37.20
2022-08-24T12:44:09.729Z,36.90
2022-08-24T12:46:38.626Z,36.61
2022-08-24T12:49:13.183Z,37.46
2022-08-24T12:52:04.291Z,37.73
2022-08-24T12:55:16.702Z,37.47
2022-08-24T12:57:56.717Z,37.21
2022-08-24T13:00:30.237Z,35.78
2022-08-24T13:03:02.548Z,37.22
2022-08-24T13:05:42.094Z,36.71
2022-08-24T13:08:12.963Z,37.15
2022-08-24T13:10:46.157Z,38.69
2022-08-24T13:13:24.000Z,37.42
2022-08-24T13:16:03.471Z,36.41
2022-08-24T13:19:16.101Z,35.97
2022-08-24T13:21:47.946Z,36.14
2022-08-24T13:25:04.270Z,35.70
2022-08-24T13:27:50.872Z,35.57
2022-08-24T13:30:58.604Z,36.64
2022-08-24T13:33:31.498Z,36.09
2022-08-24T13:36:01.022Z,36.17
2022-08-24T13:38:55.802Z,37.31
2022-08-24T13:41:48.722Z,36.97
2022-08-24T13:44:48.071Z,37.00
2022-08-24T13:47:22.869Z,37.18
2022-08-24T13:50:03.344Z,37.69
2022-08-24T13:52:41.402Z,36.75
2022-08-24T13:55:32.718Z,37.95
2022-08-24T13:58:22.472Z,38.01
2022-08-24T14:04:22.165Z,37.70
2022-08-24T14:06:57.339Z,38.83
2022-08-24T14:09:39.016Z,37.37
2022-08-24T14:12:19.842Z,37.38
2022-08-24T14:15:05.452Z,38.99
2022-08-24T14:17:54.068Z,38.23
2022-08-24T14:20:43.332Z,38.77
2022-08-24T14:23:25.461Z,38.76
2022-08-24T14:26:32.272Z,38.75
2022-08-24T14:29:29.446Z,38.75
2022-08-24T14:32:34.925Z,39.27
2022-08-24T14:35:05.956Z,38.75
2022-08-24T14:37:47.330Z,39.29
2022-08-24T14:40:26.395Z,39.71
2022-08-24T14:43:08.660Z,39.95
2022-08-24T14:45:46.017Z,38.94
2022-08-24T14:51:14.291Z,38.77
2022-08-24T15:06:46.511Z,38.38
2022-08-24T15:09:22.186Z,38.47
2022-08-24T15:11:51.541Z,38.05
2022-08-24T15:14:33.783Z,39.45
2022-08-24T15:23:09.216Z,40.06
2022-08-24T15:32:01.882Z,39.34
2022-08-24T15:34:41.341Z,40.30
2022-08-24T15:37:09.978Z,40.10
2022-08-24T15:39:39.533Z,40.30
2022-08-24T15:42:11.814Z,39.75
2022-08-24T15:44:41.954Z,39.37
2022-08-24T15:47:25.475Z,40.33
2022-08-24T15:49:57.735Z,40.87
2022-08-24T15:52:43.347Z,40.49
2022-08-24T15:55:32.679Z,41.20
2022-08-24T16:03:52.726Z,41.28
2022-08-24T16:06:26.902Z,41.26
2022-08-24T16:09:01.992Z,41.01
2022-08-24T16:11:35.530Z,41.79
2022-08-24T16:14:12.121Z,41.70
2022-08-24T16:16:43.910Z,41.67
2022-08-24T16:19:23.113Z,40.63
2022-08-24T16:24:39.573Z,41.73
2022-08-24T16:27:15.588Z,41.15
2022-08-24T16:29:46.069Z,41.44
2022-08-24T16:32:21.873Z,41.01
2022-08-24T16:35:24.781Z,40.65
2022-08-24T16:41:06.407Z,41.11
2022-08-24T16:43:37.649Z,41.66
2022-08-24T16:46:08.425Z,42.04
2022-08-24T16:48:36.413Z,42.15
2022-08-24T16:51:05.423Z,42.18
2022-08-24T16:53:33.625Z,42.40
2022-08-24T16:56:04.300Z,42.79
2022-08-24T16:58:35.139Z,42.80
2022-08-24T17:01:05.296Z,42.95
2022-08-24T17:03:34.130Z,42.93
2022-08-24T17:06:01.979Z,43.46
2022-08-24T17:08:30.111Z,43.57
2022-08-24T17:10:58.090Z,44.58
2022-08-24T17:13:48.955Z,44.82
2022-08-24T17:16:15.538Z,45.10
2022-08-24T17:18:43.788Z,45.14
2022-08-24T17:21:11.683Z,45.28
2022-08-24T17:23:41.850Z,45.39
2022-08-24T17:26:20.346Z,45.57
2022-08-24T17:28:51.712Z,45.76
2022-08-24T17:31:21.168Z,46.21
2022-08-24T17:33:49.414Z,46.39
2022-08-24T17:36:19.714Z,46.63
2022-08-24T17:38:55.265Z,46.64
2022-08-24T17:41:25.060Z,47.14
2022-08-24T17:43:53.351Z,46.99
2022-08-24T17:46:24.007Z,47.15
2022-08-24T17:48:52.084Z,47.87
2022-08-24T17:51:20.398Z,49.05
2022-08-24T17:53:48.444Z,49.76
2022-08-24T17:56:17.173Z,50.73
2022-08-24T17:59:03.382Z,51.16
2022-08-24T18:01:33.320Z,51.74
2022-08-24T18:04:01.135Z,51.67
2022-08-24T18:06:29.671Z,51.84
2022-08-24T18:09:02.697Z,52.27
2022-08-24T18:11:31.051Z,53.41
2022-08-24T18:14:01.623Z,53.27
2022-08-24T18:16:30.178Z,54.08
2022-08-24T18:18:59.788Z,54.78
2022-08-24T18:21:27.791Z,55.16
2022-08-24T18:23:56.173Z,55.51
2022-08-24T18:26:28.445Z,55.32
2022-08-24T18:29:00.349Z,54.93
2022-08-24T18:31:31.863Z,55.54
2022-08-24T18:34:01.460Z,56.58
2022-08-24T18:36:29.810Z,56.39
2022-08-24T18:38:57.824Z,56.90
2022-08-24T18:41:29.304Z,56.96
2022-08-24T18:43:57.413Z,57.38
2022-08-24T18:46:27.111Z,57.60
2022-08-24T18:48:55.676Z,57.50
2022-08-24T18:51:28.152Z,58.16
2022-08-24T18:54:06.527Z,58.03
2022-08-24T18:56:34.495Z,58.73
2022-08-24T18:59:02.621Z,59.11
2022-08-24T19:01:31.092Z,59.41
2022-08-24T19:03:59.586Z,59.00
2022-08-24T19:06:28.802Z,60.24
2022-08-24T19:08:56.693Z,59.85
2022-08-24T19:11:25.314Z,60.25
2022-08-24T19:13:53.266Z,60.11
2022-08-24T19:16:21.510Z,60.18
2022-08-24T19:18:51.089Z,60.99
2022-08-24T19:21:20.579Z,61.15
2022-08-24T19:23:50.026Z,61.31
2022-08-24T19:26:18.878Z,61.53
2022-08-24T19:28:46.832Z,61.85
2022-08-24T19:31:15.282Z,62.45
2022-08-24T19:33:46.828Z,63.01
2022-08-24T19:36:19.128Z,62.79
2022-08-24T19:38:47.574Z,63.42
2022-08-24T19:41:19.051Z,64.35
2022-08-24T19:44:09.498Z,63.29
2022-08-24T19:46:38.704Z,64.51
2022-08-24T19:49:07.251Z,64.11
2022-08-24T19:51:36.714Z,64.02
2022-08-24T19:54:05.241Z,64.30
2022-08-24T19:56:34.797Z,64.17
2022-08-24T19:59:07.583Z,64.76
2022-08-24T20:01:37.605Z,65.02
2022-08-24T20:04:07.574Z,65.14
2022-08-24T20:06:38.117Z,65.16
2022-08-24T20:09:06.133Z,65.57
2022-08-24T20:11:35.637Z,65.81
2022-08-24T20:14:04.021Z,65.11
2022-08-24T20:16:36.273Z,65.69
2022-08-24T20:19:05.068Z,66.51
2022-08-24T20:21:33.507Z,66.75
2022-08-24T20:24:01.767Z,66.84
2022-08-24T20:26:32.814Z,67.26
2022-08-24T20:29:02.645Z,66.83
2022-08-24T20:31:30.710Z,66.40
2022-08-24T20:33:58.707Z,67.35
2022-08-24T20:36:29.382Z,67.74
2022-08-24T20:39:01.380Z,66.71
2022-08-24T20:41:29.936Z,66.88
2022-08-24T20:50:00.603Z,67.05
2022-08-24T20:52:28.682Z,67.03
2022-08-24T20:54:56.771Z,68.05
2022-08-24T20:57:24.775Z,68.07
2022-08-24T20:59:52.739Z,68.81
2022-08-24T21:02:20.865Z,68.69
2022-08-24T21:04:48.802Z,68.79
2022-08-24T21:07:18.443Z,69.02
2022-08-24T21:09:46.476Z,69.40
2022-08-24T21:12:14.451Z,69.45
2022-08-24T21:14:42.321Z,69.96
2022-08-24T21:17:11.267Z,70.72
2022-08-24T21:19:39.225Z,70.44
2022-08-24T21:22:07.183Z,70.83
2022-08-24T21:24:37.132Z,71.41
2022-08-24T21:27:05.905Z,70.88
2022-08-24T21:29:33.870Z,71.54
2022-08-24T21:32:19.542Z,72.18
2022-08-24T21:34:47.438Z,71.61
2022-08-24T21:37:18.706Z,72.07
2022-08-24T21:39:48.841Z,71.42
2022-08-24T21:42:19.070Z,71.99
2022-08-24T21:44:48.267Z,72.26
2022-08-24T21:47:17.528Z,72.03
2022-08-24T21:49:45.416Z,72.38
2022-08-24T21:52:13.407Z,72.51
2022-08-24T21:54:41.925Z,73.47
2022-08-24T21:57:11.148Z,74.36
2022-08-24T21:59:39.717Z,74.40
2022-08-24T22:02:07.737Z,74.04
2022-08-24T22:04:38.597Z,74.36
2022-08-24T22:07:06.650Z,74.34
2022-08-24T22:09:34.919Z,74.43
2022-08-24T22:12:06.643Z,74.47
2022-08-24T22:14:36.068Z,74.89
2022-08-24T22:17:04.159Z,74.98
2022-08-24T22:19:32.106Z,75.08
2022-08-24T22:22:00.103Z,75.96
2022-08-24T22:24:28.072Z,76.70
2022-08-24T22:26:56.187Z,76.71
2022-08-24T22:29:24.239Z,76.66
2022-08-24T22:31:53.570Z,76.65
2022-08-24T22:34:21.852Z,75.85
2022-08-24T22:36:50.436Z,75.85
2022-08-24T22:39:18.473Z,75.77
2022-08-24T22:41:47.086Z,75.66
2022-08-24T22:44:20.949Z,75.29
2022-08-24T22:46:51.028Z,75.66
2022-08-24T22:49:22.198Z,76.03
2022-08-24T22:51:50.582Z,76.31
2022-08-24T22:54:19.656Z,76.48
2022-08-24T22:56:50.144Z,76.78
2022-08-24T22:59:19.173Z,76.55
2022-08-24T23:01:48.776Z,78.19
2022-08-24T23:04:21.389Z,78.17
2022-08-24T23:06:49.427Z,77.44
2022-08-24T23:09:17.494Z,77.90
2022-08-24T23:11:46.547Z,78.14
2022-08-24T23:14:15.511Z,78.94
2022-08-24T23:16:49.890Z,79.20
2022-08-24T23:19:39.246Z,79.18
2022-08-24T23:22:08.764Z,79.37
2022-08-24T23:24:36.972Z,79.41
2022-08-24T23:27:06.350Z,79.45
2022-08-24T23:29:36.454Z,80.43
2022-08-24T23:32:05.431Z,80.43
2022-08-24T23:34:35.159Z,80.88
2022-08-24T23:37:03.272Z,80.03
2022-08-24T23:39:31.958Z,80.12
2022-08-24T23:42:01.528Z,79.96
2022-08-24T23:44:30.892Z,80.15
2022-08-24T23:46:59.504Z,82.90
2022-08-24T23:49:29.383Z,82.14
2022-08-24T23:51:59.668Z,83.23
2022-08-24T23:54:27.998Z,82.33
2022-08-24T23:56:57.481Z,83.08
2022-08-24T23:59:29.349Z,83.04
